sensor_id;sensor_type;location;lat;lon;timestamp;P1;durP1;ratioP1;P2;durP2;ratioP2
25207;SDS011;13153;52.316;21.166;2023-07-29T00:00:58;6.05;;;4.30;;
25207;SDS011;13153;52.316;21.166;2023-07-29T00:03:25;6.15;;;4.40;;
25207;SDS011;13153;52.316;21.166;2023-07-29T00:05:51;5.57;;;4.30;;
25207;SDS011;13153;52.316;21.166;2023-07-29T00:08:16;5.70;;;4.47;;
25207;SDS011;13153;52.316;21.166;2023-07-29T00:10:42;7.88;;;4.30;;
25207;SDS011;13153;52.316;21.166;2023-07-29T00:13:08;5.53;;;4.72;;
25207;SDS011;13153;52.316;21.166;2023-07-29T00:15:34;5.15;;;4.65;;
25207;SDS011;13153;52.316;21.166;2023-07-29T00:18:00;6.03;;;4.63;;
25207;SDS011;13153;52.316;21.166;2023-07-29T00:20:26;5.43;;;4.40;;
25207;SDS011;13153;52.316;21.166;2023-07-29T00:22:51;5.47;;;4.53;;
25207;SDS011;13153;52.316;21.166;2023-07-29T00:25:20;6.43;;;4.40;;
25207;SDS011;13153;52.316;21.166;2023-07-29T00:27:47;5.22;;;4.55;;
25207;SDS011;13153;52.316;21.166;2023-07-29T00:30:13;6.13;;;4.57;;
25207;SDS011;13153;52.316;21.166;2023-07-29T00:32:38;4.70;;;4.25;;
25207;SDS011;13153;52.316;21.166;2023-07-29T00:35:04;4.90;;;4.40;;
25207;SDS011;13153;52.316;21.166;2023-07-29T00:37:31;5.18;;;4.60;;
25207;SDS011;13153;52.316;21.166;2023-07-29T00:39:57;6.28;;;4.32;;
25207;SDS011;13153;52.316;21.166;2023-07-29T00:42:23;4.97;;;4.47;;
25207;SDS011;13153;52.316;21.166;2023-07-29T00:44:49;6.85;;;4.72;;
25207;SDS011;13153;52.316;21.166;2023-07-29T00:47:15;4.80;;;4.30;;
25207;SDS011;13153;52.316;21.166;2023-07-29T00:49:45;5.43;;;4.80;;
25207;SDS011;13153;52.316;21.166;2023-07-29T00:52:11;6.45;;;4.80;;
25207;SDS011;13153;52.316;21.166;2023-07-29T00:54:40;6.55;;;5.07;;
25207;SDS011;13153;52.316;21.166;2023-07-29T00:57:08;6.57;;;5.47;;
25207;SDS011;13153;52.316;21.166;2023-07-29T00:59:36;7.15;;;5.00;;
25207;SDS011;13153;52.316;21.166;2023-07-29T01:02:03;7.35;;;5.18;;
25207;SDS011;13153;52.316;21.166;2023-07-29T01:04:29;6.97;;;5.07;;
25207;SDS011;13153;52.316;21.166;2023-07-29T01:07:30;6.22;;;5.60;;
25207;SDS011;13153;52.316;21.166;2023-07-29T01:15:28;7.18;;;5.53;;
25207;SDS011;13153;52.316;21.166;2023-07-29T01:18:15;7.78;;;5.70;;
25207;SDS011;13153;52.316;21.166;2023-07-29T01:20:48;8.73;;;5.82;;
25207;SDS011;13153;52.316;21.166;2023-07-29T01:23:25;11.90;;;5.97;;
25207;SDS011;13153;52.316;21.166;2023-07-29T01:25:55;5.82;;;5.15;;
25207;SDS011;13153;52.316;21.166;2023-07-29T01:28:21;6.90;;;5.32;;
25207;SDS011;13153;52.316;21.166;2023-07-29T01:30:49;6.00;;;5.40;;
25207;SDS011;13153;52.316;21.166;2023-07-29T01:33:25;10.00;;;5.50;;
25207;SDS011;13153;52.316;21.166;2023-07-29T01:36:01;8.77;;;5.50;;
25207;SDS011;13153;52.316;21.166;2023-07-29T01:38:36;7.80;;;5.50;;
25207;SDS011;13153;52.316;21.166;2023-07-29T01:41:06;7.55;;;5.50;;
25207;SDS011;13153;52.316;21.166;2023-07-29T01:43:33;7.93;;;5.70;;
25207;SDS011;13153;52.316;21.166;2023-07-29T01:46:07;6.77;;;5.47;;
25207;SDS011;13153;52.316;21.166;2023-07-29T01:48:35;10.07;;;5.85;;
25207;SDS011;13153;52.316;21.166;2023-07-29T01:51:01;8.18;;;6.05;;
25207;SDS011;13153;52.316;21.166;2023-07-29T01:53:27;11.68;;;6.43;;
25207;SDS011;13153;52.316;21.166;2023-07-29T01:55:53;9.38;;;6.55;;
25207;SDS011;13153;52.316;21.166;2023-07-29T01:58:19;9.57;;;6.28;;
25207;SDS011;13153;52.316;21.166;2023-07-29T02:00:45;9.98;;;6.30;;
25207;SDS011;13153;52.316;21.166;2023-07-29T02:03:10;15.45;;;7.28;;
25207;SDS011;13153;52.316;21.166;2023-07-29T02:05:36;13.68;;;6.88;;
25207;SDS011;13153;52.316;21.166;2023-07-29T02:08:02;8.45;;;6.78;;
25207;SDS011;13153;52.316;21.166;2023-07-29T02:10:28;9.82;;;7.00;;
25207;SDS011;13153;52.316;21.166;2023-07-29T02:12:53;9.15;;;6.60;;
25207;SDS011;13153;52.316;21.166;2023-07-29T02:15:19;7.90;;;7.10;;
25207;SDS011;13153;52.316;21.166;2023-07-29T02:17:45;12.15;;;7.38;;
25207;SDS011;13153;52.316;21.166;2023-07-29T02:20:10;8.60;;;7.22;;
25207;SDS011;13153;52.316;21.166;2023-07-29T02:22:36;8.95;;;7.40;;
25207;SDS011;13153;52.316;21.166;2023-07-29T02:25:02;9.02;;;7.38;;
25207;SDS011;13153;52.316;21.166;2023-07-29T02:27:28;9.35;;;7.85;;
25207;SDS011;13153;52.316;21.166;2023-07-29T02:29:54;8.82;;;7.20;;
25207;SDS011;13153;52.316;21.166;2023-07-29T02:32:20;9.77;;;7.90;;
25207;SDS011;13153;52.316;21.166;2023-07-29T02:34:46;11.05;;;8.00;;
25207;SDS011;13153;52.316;21.166;2023-07-29T02:37:12;9.30;;;7.80;;
25207;SDS011;13153;52.316;21.166;2023-07-29T02:39:38;9.10;;;7.15;;
25207;SDS011;13153;52.316;21.166;2023-07-29T02:42:03;7.85;;;7.00;;
25207;SDS011;13153;52.316;21.166;2023-07-29T02:44:29;10.13;;;7.57;;
25207;SDS011;13153;52.316;21.166;2023-07-29T02:46:55;8.98;;;6.72;;
25207;SDS011;13153;52.316;21.166;2023-07-29T02:49:21;7.07;;;6.38;;
25207;SDS011;13153;52.316;21.166;2023-07-29T02:51:48;8.02;;;7.22;;
25207;SDS011;13153;52.316;21.166;2023-07-29T02:54:14;9.52;;;8.07;;
25207;SDS011;13153;52.316;21.166;2023-07-29T02:56:40;30.63;;;19.10;;
25207;SDS011;13153;52.316;21.166;2023-07-29T02:59:05;22.13;;;16.10;;
25207;SDS011;13153;52.316;21.166;2023-07-29T03:01:31;19.40;;;13.13;;
25207;SDS011;13153;52.316;21.166;2023-07-29T03:03:57;12.27;;;9.38;;
25207;SDS011;13153;52.316;21.166;2023-07-29T03:06:23;11.60;;;8.85;;
25207;SDS011;13153;52.316;21.166;2023-07-29T03:08:49;11.30;;;8.55;;
25207;SDS011;13153;52.316;21.166;2023-07-29T03:11:15;9.98;;;7.90;;
25207;SDS011;13153;52.316;21.166;2023-07-29T03:13:41;10.65;;;8.00;;
25207;SDS011;13153;52.316;21.166;2023-07-29T03:16:09;10.35;;;8.32;;
25207;SDS011;13153;52.316;21.166;2023-07-29T03:18:40;21.92;;;15.80;;
25207;SDS011;13153;52.316;21.166;2023-07-29T03:21:07;29.17;;;19.33;;
25207;SDS011;13153;52.316;21.166;2023-07-29T03:23:34;24.90;;;15.70;;
25207;SDS011;13153;52.316;21.166;2023-07-29T03:26:02;15.38;;;11.10;;
25207;SDS011;13153;52.316;21.166;2023-07-29T03:28:35;11.43;;;9.13;;
25207;SDS011;13153;52.316;21.166;2023-07-29T03:31:04;9.65;;;8.30;;
25207;SDS011;13153;52.316;21.166;2023-07-29T03:33:30;21.02;;;15.50;;
25207;SDS011;13153;52.316;21.166;2023-07-29T03:35:56;33.90;;;22.30;;
25207;SDS011;13153;52.316;21.166;2023-07-29T03:38:21;18.08;;;13.25;;
25207;SDS011;13153;52.316;21.166;2023-07-29T03:40:48;9.60;;;6.97;;
25207;SDS011;13153;52.316;21.166;2023-07-29T03:43:14;8.00;;;6.25;;
25207;SDS011;13153;52.316;21.166;2023-07-29T03:45:40;8.68;;;6.18;;
25207;SDS011;13153;52.316;21.166;2023-07-29T03:48:06;6.88;;;5.90;;
25207;SDS011;13153;52.316;21.166;2023-07-29T03:50:33;7.95;;;6.60;;
25207;SDS011;13153;52.316;21.166;2023-07-29T03:53:00;7.78;;;6.88;;
25207;SDS011;13153;52.316;21.166;2023-07-29T03:55:27;7.97;;;6.43;;
25207;SDS011;13153;52.316;21.166;2023-07-29T03:57:55;6.82;;;6.20;;
25207;SDS011;13153;52.316;21.166;2023-07-29T04:00:25;7.45;;;6.75;;
25207;SDS011;13153;52.316;21.166;2023-07-29T04:02:52;7.35;;;6.65;;
25207;SDS011;13153;52.316;21.166;2023-07-29T04:05:17;7.82;;;6.50;;
25207;SDS011;13153;52.316;21.166;2023-07-29T04:07:44;6.50;;;5.90;;
25207;SDS011;13153;52.316;21.166;2023-07-29T04:10:10;6.20;;;5.57;;
25207;SDS011;13153;52.316;21.166;2023-07-29T04:12:37;6.90;;;6.20;;
25207;SDS011;13153;52.316;21.166;2023-07-29T04:15:03;6.25;;;5.65;;
25207;SDS011;13153;52.316;21.166;2023-07-29T04:17:29;6.38;;;5.78;;
25207;SDS011;13153;52.316;21.166;2023-07-29T04:19:55;6.93;;;5.97;;
25207;SDS011;13153;52.316;21.166;2023-07-29T04:22:20;9.07;;;6.10;;
25207;SDS011;13153;52.316;21.166;2023-07-29T04:24:46;7.38;;;6.10;;
25207;SDS011;13153;52.316;21.166;2023-07-29T04:27:12;7.75;;;6.18;;
25207;SDS011;13153;52.316;21.166;2023-07-29T04:29:38;7.93;;;6.28;;
25207;SDS011;13153;52.316;21.166;2023-07-29T04:32:04;7.13;;;6.43;;
25207;SDS011;13153;52.316;21.166;2023-07-29T04:34:30;8.40;;;7.50;;
25207;SDS011;13153;52.316;21.166;2023-07-29T04:36:57;7.82;;;7.03;;
25207;SDS011;13153;52.316;21.166;2023-07-29T04:39:23;8.50;;;7.60;;
25207;SDS011;13153;52.316;21.166;2023-07-29T04:41:48;8.20;;;7.40;;
25207;SDS011;13153;52.316;21.166;2023-07-29T04:44:14;7.95;;;7.15;;
25207;SDS011;13153;52.316;21.166;2023-07-29T04:46:40;7.32;;;6.60;;
25207;SDS011;13153;52.316;21.166;2023-07-29T04:49:06;8.23;;;7.03;;
25207;SDS011;13153;52.316;21.166;2023-07-29T04:51:31;7.55;;;6.80;;
25207;SDS011;13153;52.316;21.166;2023-07-29T04:53:58;7.80;;;7.00;;
25207;SDS011;13153;52.316;21.166;2023-07-29T04:56:24;9.23;;;8.32;;
25207;SDS011;13153;52.316;21.166;2023-07-29T04:58:50;8.00;;;7.15;;
25207;SDS011;13153;52.316;21.166;2023-07-29T05:01:17;9.00;;;8.02;;
25207;SDS011;13153;52.316;21.166;2023-07-29T05:03:43;9.75;;;8.68;;
25207;SDS011;13153;52.316;21.166;2023-07-29T05:06:08;9.55;;;8.60;;
25207;SDS011;13153;52.316;21.166;2023-07-29T05:08:34;10.20;;;8.95;;
25207;SDS011;13153;52.316;21.166;2023-07-29T05:11:01;8.82;;;7.93;;
25207;SDS011;13153;52.316;21.166;2023-07-29T05:13:27;10.95;;;9.73;;
25207;SDS011;13153;52.316;21.166;2023-07-29T05:15:53;12.38;;;9.80;;
25207;SDS011;13153;52.316;21.166;2023-07-29T05:18:19;11.80;;;9.73;;
25207;SDS011;13153;52.316;21.166;2023-07-29T05:20:45;12.10;;;10.38;;
25207;SDS011;13153;52.316;21.166;2023-07-29T05:23:12;12.13;;;9.73;;
25207;SDS011;13153;52.316;21.166;2023-07-29T05:25:38;17.50;;;10.25;;
25207;SDS011;13153;52.316;21.166;2023-07-29T05:28:04;12.25;;;9.55;;
25207;SDS011;13153;52.316;21.166;2023-07-29T05:30:30;13.43;;;9.80;;
25207;SDS011;13153;52.316;21.166;2023-07-29T05:32:58;10.40;;;8.77;;
25207;SDS011;13153;52.316;21.166;2023-07-29T05:35:25;10.35;;;9.05;;
25207;SDS011;13153;52.316;21.166;2023-07-29T05:37:51;10.00;;;8.60;;
25207;SDS011;13153;52.316;21.166;2023-07-29T05:40:17;12.23;;;9.90;;
25207;SDS011;13153;52.316;21.166;2023-07-29T05:42:42;12.35;;;10.07;;
25207;SDS011;13153;52.316;21.166;2023-07-29T05:45:10;13.57;;;9.88;;
25207;SDS011;13153;52.316;21.166;2023-07-29T05:47:36;11.43;;;9.80;;
25207;SDS011;13153;52.316;21.166;2023-07-29T05:50:03;13.38;;;10.45;;
25207;SDS011;13153;52.316;21.166;2023-07-29T05:52:30;12.32;;;9.18;;
25207;SDS011;13153;52.316;21.166;2023-07-29T05:54:56;13.35;;;10.65;;
25207;SDS011;13153;52.316;21.166;2023-07-29T05:57:22;13.02;;;10.27;;
25207;SDS011;13153;52.316;21.166;2023-07-29T05:59:48;11.43;;;9.68;;
25207;SDS011;13153;52.316;21.166;2023-07-29T06:02:14;11.68;;;9.40;;
25207;SDS011;13153;52.316;21.166;2023-07-29T06:04:40;13.82;;;9.60;;
25207;SDS011;13153;52.316;21.166;2023-07-29T06:07:06;13.52;;;10.50;;
25207;SDS011;13153;52.316;21.166;2023-07-29T06:09:32;14.23;;;10.80;;
25207;SDS011;13153;52.316;21.166;2023-07-29T06:11:58;11.15;;;9.10;;
25207;SDS011;13153;52.316;21.166;2023-07-29T06:14:23;13.93;;;9.35;;
25207;SDS011;13153;52.316;21.166;2023-07-29T06:16:49;9.93;;;8.40;;
25207;SDS011;13153;52.316;21.166;2023-07-29T06:19:15;9.45;;;8.45;;
25207;SDS011;13153;52.316;21.166;2023-07-29T06:21:40;9.23;;;7.80;;
25207;SDS011;13153;52.316;21.166;2023-07-29T06:24:07;10.02;;;8.38;;
25207;SDS011;13153;52.316;21.166;2023-07-29T06:26:33;7.78;;;6.90;;
25207;SDS011;13153;52.316;21.166;2023-07-29T06:28:58;8.50;;;7.13;;
25207;SDS011;13153;52.316;21.166;2023-07-29T06:31:24;6.80;;;6.10;;
25207;SDS011;13153;52.316;21.166;2023-07-29T06:33:50;7.60;;;5.75;;
25207;SDS011;13153;52.316;21.166;2023-07-29T06:36:16;6.50;;;5.53;;
25207;SDS011;13153;52.316;21.166;2023-07-29T06:38:42;7.30;;;5.63;;
25207;SDS011;13153;52.316;21.166;2023-07-29T06:41:07;9.75;;;5.07;;
25207;SDS011;13153;52.316;21.166;2023-07-29T06:43:33;7.10;;;5.22;;
25207;SDS011;13153;52.316;21.166;2023-07-29T06:45:59;6.35;;;5.07;;
25207;SDS011;13153;52.316;21.166;2023-07-29T06:48:25;7.88;;;4.68;;
25207;SDS011;13153;52.316;21.166;2023-07-29T06:50:50;4.90;;;4.20;;
25207;SDS011;13153;52.316;21.166;2023-07-29T06:53:17;5.70;;;5.10;;
25207;SDS011;13153;52.316;21.166;2023-07-29T06:55:43;6.82;;;4.88;;
25207;SDS011;13153;52.316;21.166;2023-07-29T06:58:09;4.55;;;3.80;;
25207;SDS011;13153;52.316;21.166;2023-07-29T07:00:35;4.78;;;4.22;;
25207;SDS011;13153;52.316;21.166;2023-07-29T07:03:01;9.52;;;4.30;;
25207;SDS011;13153;52.316;21.166;2023-07-29T07:05:27;5.75;;;3.60;;
25207;SDS011;13153;52.316;21.166;2023-07-29T07:07:53;5.03;;;3.53;;
25207;SDS011;13153;52.316;21.166;2023-07-29T07:10:18;6.68;;;3.72;;
25207;SDS011;13153;52.316;21.166;2023-07-29T07:12:44;7.18;;;3.90;;
25207;SDS011;13153;52.316;21.166;2023-07-29T07:15:10;4.72;;;3.53;;
25207;SDS011;13153;52.316;21.166;2023-07-29T07:17:36;5.65;;;3.63;;
25207;SDS011;13153;52.316;21.166;2023-07-29T07:20:02;3.80;;;3.30;;
25207;SDS011;13153;52.316;21.166;2023-07-29T07:22:28;6.22;;;3.67;;
25207;SDS011;13153;52.316;21.166;2023-07-29T07:24:54;4.95;;;3.00;;
25207;SDS011;13153;52.316;21.166;2023-07-29T07:27:20;6.25;;;3.30;;
25207;SDS011;13153;52.316;21.166;2023-07-29T07:29:46;3.97;;;3.15;;
25207;SDS011;13153;52.316;21.166;2023-07-29T07:32:11;3.58;;;3.10;;
25207;SDS011;13153;52.316;21.166;2023-07-29T07:34:37;4.30;;;2.70;;
25207;SDS011;13153;52.316;21.166;2023-07-29T07:37:03;5.35;;;3.10;;
25207;SDS011;13153;52.316;21.166;2023-07-29T07:39:29;5.55;;;3.40;;
25207;SDS011;13153;52.316;21.166;2023-07-29T07:41:56;4.40;;;3.20;;
25207;SDS011;13153;52.316;21.166;2023-07-29T07:44:22;3.88;;;3.13;;
25207;SDS011;13153;52.316;21.166;2023-07-29T07:46:51;4.80;;;3.47;;
25207;SDS011;13153;52.316;21.166;2023-07-29T07:49:17;4.93;;;3.65;;
25207;SDS011;13153;52.316;21.166;2023-07-29T07:51:43;5.28;;;3.78;;
25207;SDS011;13153;52.316;21.166;2023-07-29T07:54:09;4.70;;;3.40;;
25207;SDS011;13153;52.316;21.166;2023-07-29T07:56:35;3.97;;;3.63;;
25207;SDS011;13153;52.316;21.166;2023-07-29T07:59:01;5.13;;;4.05;;
25207;SDS011;13153;52.316;21.166;2023-07-29T08:01:26;5.82;;;3.80;;
25207;SDS011;13153;52.316;21.166;2023-07-29T08:03:52;4.05;;;3.65;;
25207;SDS011;13153;52.316;21.166;2023-07-29T08:06:18;3.90;;;3.60;;
25207;SDS011;13153;52.316;21.166;2023-07-29T08:08:44;4.63;;;3.25;;
25207;SDS011;13153;52.316;21.166;2023-07-29T08:11:10;4.28;;;3.85;;
25207;SDS011;13153;52.316;21.166;2023-07-29T08:13:35;3.67;;;3.30;;
25207;SDS011;13153;52.316;21.166;2023-07-29T08:16:01;4.10;;;3.25;;
25207;SDS011;13153;52.316;21.166;2023-07-29T08:18:27;4.50;;;3.70;;
25207;SDS011;13153;52.316;21.166;2023-07-29T08:20:56;4.93;;;3.72;;
25207;SDS011;13153;52.316;21.166;2023-07-29T08:23:24;4.60;;;3.70;;
25207;SDS011;13153;52.316;21.166;2023-07-29T08:25:52;5.30;;;3.72;;
25207;SDS011;13153;52.316;21.166;2023-07-29T08:28:26;7.78;;;3.85;;
25207;SDS011;13153;52.316;21.166;2023-07-29T08:30:58;6.25;;;4.72;;
25207;SDS011;13153;52.316;21.166;2023-07-29T08:33:25;4.38;;;3.97;;
25207;SDS011;13153;52.316;21.166;2023-07-29T08:35:51;5.63;;;4.20;;
25207;SDS011;13153;52.316;21.166;2023-07-29T08:38:18;5.05;;;4.40;;
25207;SDS011;13153;52.316;21.166;2023-07-29T08:41:06;5.72;;;4.03;;
25207;SDS011;13153;52.316;21.166;2023-07-29T08:43:31;5.47;;;4.53;;
25207;SDS011;13153;52.316;21.166;2023-07-29T08:45:58;6.60;;;4.63;;
25207;SDS011;13153;52.316;21.166;2023-07-29T08:51:21;6.75;;;4.40;;
25207;SDS011;13153;52.316;21.166;2023-07-29T08:53:50;6.20;;;4.68;;
25207;SDS011;13153;52.316;21.166;2023-07-29T08:56:17;6.63;;;4.70;;
25207;SDS011;13153;52.316;21.166;2023-07-29T08:58:43;6.22;;;4.80;;
25207;SDS011;13153;52.316;21.166;2023-07-29T09:01:09;7.00;;;4.47;;
25207;SDS011;13153;52.316;21.166;2023-07-29T09:03:36;5.03;;;4.57;;
25207;SDS011;13153;52.316;21.166;2023-07-29T09:06:01;5.45;;;4.20;;
25207;SDS011;13153;52.316;21.166;2023-07-29T09:08:28;4.30;;;3.90;;
25207;SDS011;13153;52.316;21.166;2023-07-29T09:10:54;4.38;;;3.97;;
25207;SDS011;13153;52.316;21.166;2023-07-29T09:13:21;3.55;;;3.25;;
25207;SDS011;13153;52.316;21.166;2023-07-29T09:15:47;4.22;;;3.60;;
25207;SDS011;13153;52.316;21.166;2023-07-29T09:18:16;5.00;;;3.58;;
25207;SDS011;13153;52.316;21.166;2023-07-29T09:20:48;5.40;;;3.13;;
25207;SDS011;13153;52.316;21.166;2023-07-29T09:23:15;3.70;;;2.90;;
25207;SDS011;13153;52.316;21.166;2023-07-29T09:25:42;4.60;;;3.20;;
25207;SDS011;13153;52.316;21.166;2023-07-29T09:28:12;3.83;;;3.20;;
25207;SDS011;13153;52.316;21.166;2023-07-29T09:30:40;2.78;;;2.58;;
25207;SDS011;13153;52.316;21.166;2023-07-29T09:33:08;4.68;;;3.20;;
25207;SDS011;13153;52.316;21.166;2023-07-29T09:35:35;5.07;;;4.00;;
25207;SDS011;13153;52.316;21.166;2023-07-29T09:38:25;3.70;;;3.40;;
25207;SDS011;13153;52.316;21.166;2023-07-29T09:40:54;3.58;;;3.28;;
25207;SDS011;13153;52.316;21.166;2023-07-29T09:43:26;3.42;;;3.05;;
25207;SDS011;13153;52.316;21.166;2023-07-29T09:45:59;3.95;;;3.47;;
25207;SDS011;13153;52.316;21.166;2023-07-29T09:48:36;4.40;;;3.50;;
25207;SDS011;13153;52.316;21.166;2023-07-29T09:51:13;5.50;;;3.20;;
25207;SDS011;13153;52.316;21.166;2023-07-29T09:53:41;4.07;;;2.90;;
25207;SDS011;13153;52.316;21.166;2023-07-29T09:56:10;3.45;;;3.15;;
25207;SDS011;13153;52.316;21.166;2023-07-29T09:58:38;3.20;;;2.90;;
25207;SDS011;13153;52.316;21.166;2023-07-29T10:01:08;3.88;;;3.05;;
25207;SDS011;13153;52.316;21.166;2023-07-29T10:03:34;3.30;;;3.00;;
25207;SDS011;13153;52.316;21.166;2023-07-29T10:06:02;4.88;;;4.03;;
25207;SDS011;13153;52.316;21.166;2023-07-29T10:08:29;4.43;;;2.95;;
25207;SDS011;13153;52.316;21.166;2023-07-29T10:13:40;4.45;;;2.95;;
25207;SDS011;13153;52.316;21.166;2023-07-29T10:16:06;2.92;;;2.70;;
25207;SDS011;13153;52.316;21.166;2023-07-29T10:18:32;5.20;;;3.42;;
25207;SDS011;13153;52.316;21.166;2023-07-29T10:20:59;3.63;;;2.70;;
25207;SDS011;13153;52.316;21.166;2023-07-29T10:23:27;3.42;;;2.92;;
25207;SDS011;13153;52.316;21.166;2023-07-29T10:26:02;2.95;;;2.20;;
25207;SDS011;13153;52.316;21.166;2023-07-29T10:28:35;2.40;;;2.20;;
25207;SDS011;13153;52.316;21.166;2023-07-29T10:31:10;5.35;;;2.40;;
25207;SDS011;13153;52.316;21.166;2023-07-29T10:33:37;7.68;;;2.90;;
25207;SDS011;13153;52.316;21.166;2023-07-29T10:36:04;3.08;;;2.40;;
25207;SDS011;13153;52.316;21.166;2023-07-29T10:38:30;3.53;;;2.50;;
25207;SDS011;13153;52.316;21.166;2023-07-29T10:40:57;3.92;;;2.22;;
25207;SDS011;13153;52.316;21.166;2023-07-29T10:46:21;3.42;;;3.10;;
25207;SDS011;13153;52.316;21.166;2023-07-29T10:51:30;3.58;;;2.92;;
25207;SDS011;13153;52.316;21.166;2023-07-29T10:54:11;2.70;;;2.30;;
25207;SDS011;13153;52.316;21.166;2023-07-29T10:56:42;3.03;;;2.67;;
25207;SDS011;13153;52.316;21.166;2023-07-29T11:01:42;3.63;;;2.80;;
25207;SDS011;13153;52.316;21.166;2023-07-29T11:15:12;4.07;;;2.10;;
25207;SDS011;13153;52.316;21.166;2023-07-29T11:17:47;2.50;;;2.08;;
25207;SDS011;13153;52.316;21.166;2023-07-29T11:20:36;2.33;;;2.03;;
25207;SDS011;13153;52.316;21.166;2023-07-29T11:23:03;2.13;;;1.97;;
25207;SDS011;13153;52.316;21.166;2023-07-29T11:25:30;2.58;;;2.00;;
25207;SDS011;13153;52.316;21.166;2023-07-29T11:27:59;2.03;;;1.83;;
25207;SDS011;13153;52.316;21.166;2023-07-29T11:30:25;3.00;;;2.38;;
25207;SDS011;13153;52.316;21.166;2023-07-29T11:32:52;3.25;;;2.45;;
25207;SDS011;13153;52.316;21.166;2023-07-29T11:35:20;2.53;;;2.33;;
25207;SDS011;13153;52.316;21.166;2023-07-29T11:37:47;4.78;;;2.40;;
25207;SDS011;13153;52.316;21.166;2023-07-29T11:40:19;3.05;;;2.30;;
25207;SDS011;13153;52.316;21.166;2023-07-29T11:42:47;2.20;;;2.00;;
25207;SDS011;13153;52.316;21.166;2023-07-29T11:45:15;2.95;;;2.20;;
25207;SDS011;13153;52.316;21.166;2023-07-29T11:47:41;3.78;;;2.00;;
25207;SDS011;13153;52.316;21.166;2023-07-29T11:50:08;2.53;;;2.08;;
25207;SDS011;13153;52.316;21.166;2023-07-29T11:52:36;2.53;;;1.85;;
25207;SDS011;13153;52.316;21.166;2023-07-29T11:55:05;1.88;;;1.77;;
25207;SDS011;13153;52.316;21.166;2023-07-29T11:57:36;2.28;;;1.85;;
25207;SDS011;13153;52.316;21.166;2023-07-29T12:00:07;2.15;;;1.75;;
25207;SDS011;13153;52.316;21.166;2023-07-29T12:02:36;4.88;;;2.80;;
25207;SDS011;13153;52.316;21.166;2023-07-29T12:05:04;3.38;;;2.65;;
25207;SDS011;13153;52.316;21.166;2023-07-29T12:07:32;3.53;;;2.80;;
25207;SDS011;13153;52.316;21.166;2023-07-29T12:09:59;2.15;;;1.90;;
25207;SDS011;13153;52.316;21.166;2023-07-29T12:12:25;3.05;;;2.25;;
25207;SDS011;13153;52.316;21.166;2023-07-29T12:14:50;2.33;;;2.13;;
25207;SDS011;13153;52.316;21.166;2023-07-29T12:17:19;2.60;;;2.40;;
25207;SDS011;13153;52.316;21.166;2023-07-29T12:19:45;2.38;;;2.10;;
25207;SDS011;13153;52.316;21.166;2023-07-29T12:22:10;2.45;;;2.00;;
25207;SDS011;13153;52.316;21.166;2023-07-29T12:24:37;1.90;;;1.80;;
25207;SDS011;13153;52.316;21.166;2023-07-29T12:27:05;3.85;;;1.98;;
25207;SDS011;13153;52.316;21.166;2023-07-29T12:29:44;2.00;;;1.88;;
25207;SDS011;13153;52.316;21.166;2023-07-29T12:32:11;2.58;;;1.92;;
25207;SDS011;13153;52.316;21.166;2023-07-29T12:34:38;2.30;;;1.98;;
25207;SDS011;13153;52.316;21.166;2023-07-29T12:37:04;1.70;;;1.60;;
25207;SDS011;13153;52.316;21.166;2023-07-29T12:39:32;2.13;;;1.95;;
25207;SDS011;13153;52.316;21.166;2023-07-29T12:42:05;2.22;;;2.03;;
25207;SDS011;13153;52.316;21.166;2023-07-29T12:44:32;2.10;;;2.00;;
25207;SDS011;13153;52.316;21.166;2023-07-29T12:47:01;2.00;;;1.80;;
25207;SDS011;13153;52.316;21.166;2023-07-29T12:49:29;3.45;;;1.80;;
25207;SDS011;13153;52.316;21.166;2023-07-29T12:51:59;2.20;;;1.77;;
25207;SDS011;13153;52.316;21.166;2023-07-29T12:54:25;2.40;;;1.70;;
25207;SDS011;13153;52.316;21.166;2023-07-29T12:56:51;2.42;;;2.00;;
25207;SDS011;13153;52.316;21.166;2023-07-29T12:59:17;2.22;;;2.03;;
25207;SDS011;13153;52.316;21.166;2023-07-29T13:01:43;2.40;;;2.13;;
25207;SDS011;13153;52.316;21.166;2023-07-29T13:04:09;2.15;;;1.90;;
25207;SDS011;13153;52.316;21.166;2023-07-29T13:06:36;4.47;;;2.17;;
25207;SDS011;13153;52.316;21.166;2023-07-29T13:09:03;2.00;;;1.90;;
25207;SDS011;13153;52.316;21.166;2023-07-29T13:11:30;2.60;;;2.40;;
25207;SDS011;13153;52.316;21.166;2023-07-29T13:13:57;2.90;;;2.10;;
25207;SDS011;13153;52.316;21.166;2023-07-29T13:16:23;6.70;;;2.40;;
25207;SDS011;13153;52.316;21.166;2023-07-29T13:18:49;2.00;;;1.90;;
25207;SDS011;13153;52.316;21.166;2023-07-29T13:21:15;4.20;;;2.15;;
25207;SDS011;13153;52.316;21.166;2023-07-29T13:23:40;3.83;;;2.00;;
25207;SDS011;13153;52.316;21.166;2023-07-29T13:26:06;7.15;;;5.32;;
25207;SDS011;13153;52.316;21.166;2023-07-29T13:28:32;3.70;;;3.22;;
25207;SDS011;13153;52.316;21.166;2023-07-29T13:30:58;2.55;;;2.25;;
25207;SDS011;13153;52.316;21.166;2023-07-29T13:33:24;2.38;;;2.15;;
25207;SDS011;13153;52.316;21.166;2023-07-29T13:35:50;2.22;;;2.03;;
25207;SDS011;13153;52.316;21.166;2023-07-29T13:38:15;1.92;;;1.83;;
25207;SDS011;13153;52.316;21.166;2023-07-29T13:40:41;2.20;;;2.00;;
25207;SDS011;13153;52.316;21.166;2023-07-29T13:43:07;2.50;;;2.30;;
25207;SDS011;13153;52.316;21.166;2023-07-29T13:45:34;4.25;;;2.65;;
25207;SDS011;13153;52.316;21.166;2023-07-29T13:48:00;4.13;;;3.20;;
25207;SDS011;13153;52.316;21.166;2023-07-29T13:50:25;3.67;;;2.40;;
25207;SDS011;13153;52.316;21.166;2023-07-29T13:52:51;6.13;;;3.03;;
25207;SDS011;13153;52.316;21.166;2023-07-29T13:55:17;2.75;;;2.42;;
25207;SDS011;13153;52.316;21.166;2023-07-29T13:57:43;4.10;;;2.88;;
25207;SDS011;13153;52.316;21.166;2023-07-29T14:00:08;2.90;;;2.20;;
25207;SDS011;13153;52.316;21.166;2023-07-29T14:02:34;4.18;;;2.45;;
25207;SDS011;13153;52.316;21.166;2023-07-29T14:05:00;2.25;;;2.05;;
25207;SDS011;13153;52.316;21.166;2023-07-29T14:07:26;2.30;;;2.10;;
25207;SDS011;13153;52.316;21.166;2023-07-29T14:09:51;2.60;;;2.17;;
25207;SDS011;13153;52.316;21.166;2023-07-29T14:12:17;2.92;;;2.45;;
25207;SDS011;13153;52.316;21.166;2023-07-29T14:14:43;3.60;;;2.70;;
25207;SDS011;13153;52.316;21.166;2023-07-29T14:17:09;2.95;;;2.00;;
25207;SDS011;13153;52.316;21.166;2023-07-29T14:19:35;3.47;;;2.15;;
25207;SDS011;13153;52.316;21.166;2023-07-29T14:22:04;3.92;;;2.08;;
25207;SDS011;13153;52.316;21.166;2023-07-29T14:24:30;3.17;;;2.88;;
25207;SDS011;13153;52.316;21.166;2023-07-29T14:26:55;3.35;;;2.50;;
25207;SDS011;13153;52.316;21.166;2023-07-29T14:29:21;3.70;;;1.90;;
25207;SDS011;13153;52.316;21.166;2023-07-29T14:31:47;2.50;;;2.30;;
25207;SDS011;13153;52.316;21.166;2023-07-29T14:34:13;3.33;;;3.03;;
25207;SDS011;13153;52.316;21.166;2023-07-29T14:36:38;2.53;;;2.33;;
25207;SDS011;13153;52.316;21.166;2023-07-29T14:39:04;2.55;;;2.35;;
25207;SDS011;13153;52.316;21.166;2023-07-29T14:41:30;2.58;;;2.35;;
25207;SDS011;13153;52.316;21.166;2023-07-29T14:43:56;2.30;;;2.10;;
25207;SDS011;13153;52.316;21.166;2023-07-29T14:46:22;4.90;;;2.22;;
25207;SDS011;13153;52.316;21.166;2023-07-29T14:48:48;4.18;;;2.00;;
25207;SDS011;13153;52.316;21.166;2023-07-29T14:51:14;2.30;;;2.10;;
25207;SDS011;13153;52.316;21.166;2023-07-29T14:53:40;2.35;;;2.13;;
25207;SDS011;13153;52.316;21.166;2023-07-29T14:56:06;2.28;;;1.98;;
25207;SDS011;13153;52.316;21.166;2023-07-29T14:58:32;2.80;;;2.50;;
25207;SDS011;13153;52.316;21.166;2023-07-29T15:00:57;2.30;;;2.00;;